MSC Musica — 3EFK6 — position and weather

sailwx.info

Track history (hours):
 
Tides and Currents Weather Stations Pressure Air Temp Water Temp Dewpoint Dewpoint Depression Visibility Wind Speed Wind Dir Waves Ship Positions

MSC Musica

Last reported at 2017-Oct-19 16:58 UTC. Time now 2017-Oct-20 10:59 UTC.
Position N 36°54' E 023°30'.

Length 294 m; draft 8 m.

Type: Ship. MMSI: 352003000.

Date/timePositionNaut miles runAvg speedWind from/ knotsBaromVisibWave heightAir tempDewpointWater temp
2017-Oct-19 16:58N 36°54' E 023°30'2119.6
2017-Oct-19 15:53N 37°15' E 023°36'720.0
2017-Oct-19 15:30N 37°23' E 023°38'1620.2
2017-Oct-19 14:41N 37°39' E 023°42'420.3
2017-Oct-19 14:30N 37°42' E 023°41'1019.7
2017-Oct-19 14:00N 37°51' E 023°37'510.0
2017-Oct-19 13:30N 37°56' E 023°38'0 0.1
2017-Oct-19 13:00N 37°56' E 023°38'0 0.0
2017-Oct-19 12:30N 37°56' E 023°38'0 0.0
2017-Oct-19 12:00N 37°56' E 023°38'0 0.0
2017-Oct-19 11:30N 37°56' E 023°38'0 0.0
2017-Oct-19 11:00N 37°56' E 023°38'0 0.0
2017-Oct-19 10:30N 37°56' E 023°38'0 0.0
2017-Oct-19 10:00N 37°56' E 023°38'0 0.0
2017-Oct-19 09:30N 37°56' E 023°38'0 0.0
2017-Oct-19 08:57N 37°56' E 023°38'0 0.0
2017-Oct-19 08:30N 37°56' E 023°38'0 0.0
2017-Oct-19 08:00N 37°56' E 023°38'0 0.0
2017-Oct-19 07:30N 37°56' E 023°38'0 0.0
2017-Oct-19 07:00N 37°56' E 023°38'0 0.0
2017-Oct-19 06:30N 37°56' E 023°38'0 0.0
2017-Oct-19 06:00N 37°56' E 023°38'0 0.0
2017-Oct-19 05:30N 37°56' E 023°38'0 0.0
2017-Oct-19 05:00N 37°56' E 023°38'0 0.0
2017-Oct-19 04:30N 37°56' E 023°38'0 0.0
2017-Oct-19 04:00N 37°56' E 023°38'1 2.4
2017-Oct-19 03:31N 37°56' E 023°37'1 2.9
2017-Oct-19 03:00N 37°55' E 023°37'3 5.7
2017-Oct-19 02:30N 37°52' E 023°39'611.0
2017-Oct-19 02:00N 37°47' E 023°42'611.1
2017-Oct-19 01:30N 37°42' E 023°45'510.9
2017-Oct-19 01:00N 37°38' E 023°49'911.1
2017-Oct-19 00:10N 37°32' E 023°58'228 4.9
2017-Oct-17 01:19N 39°05' E 019°32'618.8
2017-Oct-17 01:00N 39°10' E 019°28'1018.7
2017-Oct-17 00:30N 39°17' E 019°21'918.5
2017-Oct-17 00:00N 39°25' E 019°15'918.5
2017-Oct-16 23:30N 39°33' E 019°09'918.7
2017-Oct-16 23:00N 39°41' E 019°03'918.6
2017-Oct-16 22:30N 39°49' E 018°56'918.7
2017-Oct-16 22:00N 39°57' E 018°50'1019.0
2017-Oct-16 21:30N 40°05' E 018°43'1118.8
2017-Oct-16 20:54N 40°15' E 018°36'919.1
2017-Oct-16 20:27N 40°22' E 018°30'819.1
2017-Oct-16 20:00N 40°29' E 018°24'918.5
2017-Oct-16 19:30N 40°36' E 018°16'1017.8
2017-Oct-16 18:56N 40°43' E 018°05'613.8
2017-Oct-16 18:30N 40°39' E 017°59'1 1.0
2017-Oct-16 17:58N 40°39' E 017°58'0 0.0
2017-Oct-16 17:28N 40°39' E 017°58'0 0.0
2017-Oct-16 17:00N 40°39' E 017°58'0 0.0
2017-Oct-16 16:30N 40°39' E 017°58'0 0.0
2017-Oct-16 16:00N 40°39' E 017°58'25 4.3
2017-Oct-16 10:07N 41°01' E 017°43'421.2
2017-Oct-16 09:55N 41°04' E 017°39'921.2
2017-Oct-16 09:30N 41°11' E 017°31'3321.2
2017-Oct-16 07:56N 41°34' E 016°60'2621.3
2017-Oct-16 06:43N 41°52' E 016°35'521.2
2017-Oct-16 06:29N 41°56' E 016°31'8721.0
2017-Oct-16 02:19N 43°02' E 015°13'721.1
2017-Oct-16 01:59N 43°08' E 015°07'1221.1
2017-Oct-16 01:24N 43°17' E 014°56'921.0
2017-Oct-16 00:57N 43°24' E 014°48'920.9
2017-Oct-16 00:30N 43°32' E 014°40'1220.9
2017-Oct-15 23:55N 43°41' E 014°30'920.7
2017-Oct-15 23:28N 43°49' E 014°22'1020.8
2017-Oct-15 23:00N 43°56' E 014°13'1020.9
2017-Oct-15 22:30N 44°04' E 014°04'1020.8
2017-Oct-15 22:00N 44°12' E 013°55'1020.8
2017-Oct-15 21:30N 44°21' E 013°47'1020.8
2017-Oct-15 21:00N 44°30' E 013°40'1020.8
2017-Oct-15 20:30N 44°39' E 013°32'1020.8
2017-Oct-15 20:00N 44°47' E 013°24'1020.6
2017-Oct-15 19:30N 44°56' E 013°15'1020.5
2017-Oct-15 19:00N 45°03' E 013°06'1020.4
2017-Oct-15 18:30N 45°10' E 012°55'1020.4
2017-Oct-15 18:00N 45°17' E 012°44'1019.6
2017-Oct-15 17:30N 45°22' E 012°32'612.8
2017-Oct-15 17:00N 45°26' E 012°25'3 5.7
2017-Oct-15 16:30N 45°26' E 012°21'1 2.7
2017-Oct-15 15:59N 45°26' E 012°19'0 0.0
2017-Oct-15 15:29N 45°26' E 012°19'0 0.0
2017-Oct-15 14:59N 45°26' E 012°19'0 0.0
2017-Oct-15 13:59N 45°26' E 012°19'0 0.0
2017-Oct-15 13:29N 45°26' E 012°19'0 0.0
2017-Oct-15 13:00N 45°26' E 012°19'0 0.0
2017-Oct-15 12:30N 45°26' E 012°19'1 1.6
2017-Oct-15 12:00N 45°26' E 012°20'2 4.8
2017-Oct-15 11:30N 45°26' E 012°23'4 7.1
2017-Oct-15 11:00N 45°25' E 012°28'3 5.8
2017-Oct-15 10:30N 45°24' E 012°32'1 1.2
2017-Oct-15 10:00N 45°25' E 012°32'0 0.1
2017-Oct-15 09:30N 45°25' E 012°32'0 0.0
2017-Oct-15 09:00N 45°25' E 012°32'0 0.0
2017-Oct-15 08:21N 45°25' E 012°32'0 0.0
2017-Oct-15 07:59N 45°25' E 012°32'0 0.0
2017-Oct-15 07:28N 45°25' E 012°32'0 0.0
2017-Oct-15 06:55N 45°25' E 012°32'0 0.0
2017-Oct-15 06:28N 45°25' E 012°32'0 0.0
2017-Oct-15 06:00N 45°25' E 012°32'3 5.5
2017-Oct-15 05:30N 45°22' E 012°34'714.7
2017-Oct-15 05:00N 45°19' E 012°43'1019.4
2017-Oct-15 04:30N 45°15' E 012°55'1020.2
2017-Oct-15 04:01N 45°11' E 013°09'918.9
2017-Oct-15 03:30N 45°04' E 013°18'1020.4
2017-Oct-15 03:01N 44°54' E 013°23'1020.2
2017-Oct-15 02:31N 44°46' E 013°30'1020.5
2017-Oct-15 02:01N 44°37' E 013°39'1020.5
2017-Oct-15 01:30N 44°29' E 013°46'1020.4
2017-Oct-15 01:01N 44°20' E 013°54'1020.6
2017-Oct-15 00:30N 44°12' E 014°02'1020.4
2017-Oct-15 00:01N 44°04' E 014°12'1020.4
2017-Oct-14 23:31N 43°57' E 014°22'1020.3
2017-Oct-14 23:00N 43°50' E 014°32'1020.4
2017-Oct-14 22:30N 43°43' E 014°42'1020.1
2017-Oct-14 22:00N 43°35' E 014°52'1220.1
2017-Oct-14 21:25N 43°27' E 015°03'919.9
2017-Oct-14 20:58N 43°21' E 015°12'1220.0
2017-Oct-14 20:21N 43°12' E 015°24'720.0
2017-Oct-14 20:00N 43°07' E 015°31'1120.1
2017-Oct-14 19:27N 42°59' E 015°42'169 8.2
2017-Oct-13 22:53N 41°24' E 018°51'717.4
2017-Oct-13 22:30N 41°18' E 018°53'4317.3
2017-Oct-13 20:00N 40°36' E 019°06'2216.7
2017-Oct-13 18:42N 40°15' E 019°14'416.9
2017-Oct-13 18:28N 40°12' E 019°18'816.8
2017-Oct-13 18:00N 40°08' E 019°26'2017.1
2017-Oct-13 16:51N 39°56' E 019°47'92 7.5
2017-Oct-13 04:40N 38°28' E 020°17'420.8
2017-Oct-13 04:30N 38°24' E 020°17'2319.5
2017-Oct-13 03:19N 38°01' E 020°23'620.3
2017-Oct-13 03:00N 37°56' E 020°27'15512.5
2017-Oct-12 14:39N 37°39' E 023°42'320.5
2017-Oct-12 14:30N 37°41' E 023°41'1020.4
2017-Oct-12 14:00N 37°51' E 023°37'511.0
2017-Oct-12 13:31N 37°56' E 023°38'0 0.2
2017-Oct-12 12:59N 37°56' E 023°37'0 0.0
2017-Oct-12 12:29N 37°56' E 023°37'0 0.0
2017-Oct-12 11:59N 37°56' E 023°37'0 0.0
2017-Oct-12 11:29N 37°56' E 023°37'0 0.0
2017-Oct-12 10:59N 37°56' E 023°37'0 0.0
2017-Oct-12 10:29N 37°56' E 023°37'0 0.0
2017-Oct-12 09:59N 37°56' E 023°37'0 0.0
2017-Oct-12 09:29N 37°56' E 023°37'0 0.0
2017-Oct-12 08:59N 37°56' E 023°37'0 0.0
2017-Oct-12 08:29N 37°56' E 023°37'0 0.0
2017-Oct-12 07:02N 37°56' E 023°37'0 0.0
2017-Oct-12 06:59N 37°56' E 023°37'0 0.0
2017-Oct-12 06:29N 37°56' E 023°37'0 0.0
2017-Oct-12 05:59N 37°56' E 023°37'0 0.0
2017-Oct-12 05:29N 37°56' E 023°37'0 0.0
2017-Oct-12 04:59N 37°56' E 023°37'0 0.0
2017-Oct-12 04:29N 37°56' E 023°37'0 0.6
2017-Oct-12 04:00N 37°56' E 023°37'2 3.5
2017-Oct-12 03:30N 37°54' E 023°37'3 6.2
2017-Oct-12 03:00N 37°52' E 023°39'611.5
2017-Oct-12 02:30N 37°47' E 023°42'  
Track history (hours):
 
Tides and Currents Weather Stations Pressure Air Temp Water Temp Dewpoint Dewpoint Depression Visibility Wind Speed Wind Dir Waves Ship Positions

MSC Musica

Last reported at 2017-Oct-19 16:58 UTC. Time now 2017-Oct-20 10:59 UTC.
Position N 36°54' E 023°30'.

Length 294 m; draft 8 m.

Type: Ship. MMSI: 352003000.

Date/timePositionNaut miles runAvg speedWind from/ knotsBaromVisibWave heightAir tempDewpointWater temp
2017-Oct-19 16:58N 36°54' E 023°30'2119.6
2017-Oct-19 15:53N 37°15' E 023°36'720.0
2017-Oct-19 15:30N 37°23' E 023°38'1620.2
2017-Oct-19 14:41N 37°39' E 023°42'420.3
2017-Oct-19 14:30N 37°42' E 023°41'1019.7
2017-Oct-19 14:00N 37°51' E 023°37'510.0
2017-Oct-19 13:30N 37°56' E 023°38'0 0.1
2017-Oct-19 13:00N 37°56' E 023°38'0 0.0
2017-Oct-19 12:30N 37°56' E 023°38'0 0.0
2017-Oct-19 12:00N 37°56' E 023°38'0 0.0
2017-Oct-19 11:30N 37°56' E 023°38'0 0.0
2017-Oct-19 11:00N 37°56' E 023°38'0 0.0
2017-Oct-19 10:30N 37°56' E 023°38'0 0.0
2017-Oct-19 10:00N 37°56' E 023°38'0 0.0
2017-Oct-19 09:30N 37°56' E 023°38'0 0.0
2017-Oct-19 08:57N 37°56' E 023°38'0 0.0
2017-Oct-19 08:30N 37°56' E 023°38'0 0.0
2017-Oct-19 08:00N 37°56' E 023°38'0 0.0
2017-Oct-19 07:30N 37°56' E 023°38'0 0.0
2017-Oct-19 07:00N 37°56' E 023°38'0 0.0
2017-Oct-19 06:30N 37°56' E 023°38'0 0.0
2017-Oct-19 06:00N 37°56' E 023°38'0 0.0
2017-Oct-19 05:30N 37°56' E 023°38'0 0.0
2017-Oct-19 05:00N 37°56' E 023°38'0 0.0
2017-Oct-19 04:30N 37°56' E 023°38'0 0.0
2017-Oct-19 04:00N 37°56' E 023°38'1 2.4
2017-Oct-19 03:31N 37°56' E 023°37'1 2.9
2017-Oct-19 03:00N 37°55' E 023°37'3 5.7
2017-Oct-19 02:30N 37°52' E 023°39'611.0
2017-Oct-19 02:00N 37°47' E 023°42'611.1
2017-Oct-19 01:30N 37°42' E 023°45'510.9
2017-Oct-19 01:00N 37°38' E 023°49'911.1
2017-Oct-19 00:10N 37°32' E 023°58'228 4.9
2017-Oct-17 01:19N 39°05' E 019°32'618.8
2017-Oct-17 01:00N 39°10' E 019°28'1018.7
2017-Oct-17 00:30N 39°17' E 019°21'918.5
2017-Oct-17 00:00N 39°25' E 019°15'918.5
2017-Oct-16 23:30N 39°33' E 019°09'918.7
2017-Oct-16 23:00N 39°41' E 019°03'918.6
2017-Oct-16 22:30N 39°49' E 018°56'918.7
2017-Oct-16 22:00N 39°57' E 018°50'1019.0
2017-Oct-16 21:30N 40°05' E 018°43'1118.8
2017-Oct-16 20:54N 40°15' E 018°36'919.1
2017-Oct-16 20:27N 40°22' E 018°30'819.1
2017-Oct-16 20:00N 40°29' E 018°24'918.5
2017-Oct-16 19:30N 40°36' E 018°16'1017.8
2017-Oct-16 18:56N 40°43' E 018°05'613.8
2017-Oct-16 18:30N 40°39' E 017°59'1 1.0
2017-Oct-16 17:58N 40°39' E 017°58'0 0.0
2017-Oct-16 17:28N 40°39' E 017°58'0 0.0
2017-Oct-16 17:00N 40°39' E 017°58'0 0.0
2017-Oct-16 16:30N 40°39' E 017°58'0 0.0
2017-Oct-16 16:00N 40°39' E 017°58'25 4.3
2017-Oct-16 10:07N 41°01' E 017°43'421.2
2017-Oct-16 09:55N 41°04' E 017°39'921.2
2017-Oct-16 09:30N 41°11' E 017°31'3321.2
2017-Oct-16 07:56N 41°34' E 016°60'2621.3
2017-Oct-16 06:43N 41°52' E 016°35'521.2
2017-Oct-16 06:29N 41°56' E 016°31'8721.0
2017-Oct-16 02:19N 43°02' E 015°13'721.1
2017-Oct-16 01:59N 43°08' E 015°07'1221.1
2017-Oct-16 01:24N 43°17' E 014°56'921.0
2017-Oct-16 00:57N 43°24' E 014°48'920.9
2017-Oct-16 00:30N 43°32' E 014°40'1220.9
2017-Oct-15 23:55N 43°41' E 014°30'920.7
2017-Oct-15 23:28N 43°49' E 014°22'1020.8
2017-Oct-15 23:00N 43°56' E 014°13'1020.9
2017-Oct-15 22:30N 44°04' E 014°04'1020.8
2017-Oct-15 22:00N 44°12' E 013°55'1020.8
2017-Oct-15 21:30N 44°21' E 013°47'1020.8
2017-Oct-15 21:00N 44°30' E 013°40'1020.8
2017-Oct-15 20:30N 44°39' E 013°32'1020.8
2017-Oct-15 20:00N 44°47' E 013°24'1020.6
2017-Oct-15 19:30N 44°56' E 013°15'1020.5
2017-Oct-15 19:00N 45°03' E 013°06'1020.4
2017-Oct-15 18:30N 45°10' E 012°55'1020.4
2017-Oct-15 18:00N 45°17' E 012°44'1019.6
2017-Oct-15 17:30N 45°22' E 012°32'612.8
2017-Oct-15 17:00N 45°26' E 012°25'3 5.7
2017-Oct-15 16:30N 45°26' E 012°21'1 2.7
2017-Oct-15 15:59N 45°26' E 012°19'0 0.0
2017-Oct-15 15:29N 45°26' E 012°19'0 0.0
2017-Oct-15 14:59N 45°26' E 012°19'0 0.0
2017-Oct-15 13:59N 45°26' E 012°19'0 0.0
2017-Oct-15 13:29N 45°26' E 012°19'0 0.0
2017-Oct-15 13:00N 45°26' E 012°19'0 0.0
2017-Oct-15 12:30N 45°26' E 012°19'1 1.6
2017-Oct-15 12:00N 45°26' E 012°20'2 4.8
2017-Oct-15 11:30N 45°26' E 012°23'4 7.1
2017-Oct-15 11:00N 45°25' E 012°28'3 5.8
2017-Oct-15 10:30N 45°24' E 012°32'1 1.2
2017-Oct-15 10:00N 45°25' E 012°32'0 0.1
2017-Oct-15 09:30N 45°25' E 012°32'0 0.0
2017-Oct-15 09:00N 45°25' E 012°32'0 0.0
2017-Oct-15 08:21N 45°25' E 012°32'0 0.0
2017-Oct-15 07:59N 45°25' E 012°32'0 0.0
2017-Oct-15 07:28N 45°25' E 012°32'0 0.0
2017-Oct-15 06:55N 45°25' E 012°32'0 0.0
2017-Oct-15 06:28N 45°25' E 012°32'0 0.0
2017-Oct-15 06:00N 45°25' E 012°32'3 5.5
2017-Oct-15 05:30N 45°22' E 012°34'714.7
2017-Oct-15 05:00N 45°19' E 012°43'1019.4
2017-Oct-15 04:30N 45°15' E 012°55'1020.2
2017-Oct-15 04:01N 45°11' E 013°09'918.9
2017-Oct-15 03:30N 45°04' E 013°18'1020.4
2017-Oct-15 03:01N 44°54' E 013°23'1020.2
2017-Oct-15 02:31N 44°46' E 013°30'1020.5
2017-Oct-15 02:01N 44°37' E 013°39'1020.5
2017-Oct-15 01:30N 44°29' E 013°46'1020.4
2017-Oct-15 01:01N 44°20' E 013°54'1020.6
2017-Oct-15 00:30N 44°12' E 014°02'1020.4
2017-Oct-15 00:01N 44°04' E 014°12'1020.4
2017-Oct-14 23:31N 43°57' E 014°22'1020.3
2017-Oct-14 23:00N 43°50' E 014°32'1020.4
2017-Oct-14 22:30N 43°43' E 014°42'1020.1
2017-Oct-14 22:00N 43°35' E 014°52'1220.1
2017-Oct-14 21:25N 43°27' E 015°03'919.9
2017-Oct-14 20:58N 43°21' E 015°12'1220.0
2017-Oct-14 20:21N 43°12' E 015°24'720.0
2017-Oct-14 20:00N 43°07' E 015°31'1120.1
2017-Oct-14 19:27N 42°59' E 015°42'169 8.2
2017-Oct-13 22:53N 41°24' E 018°51'717.4
2017-Oct-13 22:30N 41°18' E 018°53'4317.3
2017-Oct-13 20:00N 40°36' E 019°06'2216.7
2017-Oct-13 18:42N 40°15' E 019°14'416.9
2017-Oct-13 18:28N 40°12' E 019°18'816.8
2017-Oct-13 18:00N 40°08' E 019°26'2017.1
2017-Oct-13 16:51N 39°56' E 019°47'92 7.5
2017-Oct-13 04:40N 38°28' E 020°17'420.8
2017-Oct-13 04:30N 38°24' E 020°17'2319.5
2017-Oct-13 03:19N 38°01' E 020°23'620.3
2017-Oct-13 03:00N 37°56' E 020°27'15512.5
2017-Oct-12 14:39N 37°39' E 023°42'320.5
2017-Oct-12 14:30N 37°41' E 023°41'1020.4
2017-Oct-12 14:00N 37°51' E 023°37'511.0
2017-Oct-12 13:31N 37°56' E 023°38'0 0.2
2017-Oct-12 12:59N 37°56' E 023°37'0 0.0
2017-Oct-12 12:29N 37°56' E 023°37'0 0.0
2017-Oct-12 11:59N 37°56' E 023°37'0 0.0
2017-Oct-12 11:29N 37°56' E 023°37'0 0.0
2017-Oct-12 10:59N 37°56' E 023°37'0 0.0
2017-Oct-12 10:29N 37°56' E 023°37'0 0.0
2017-Oct-12 09:59N 37°56' E 023°37'0 0.0
2017-Oct-12 09:29N 37°56' E 023°37'0 0.0
2017-Oct-12 08:59N 37°56' E 023°37'0 0.0
2017-Oct-12 08:29N 37°56' E 023°37'0 0.0
2017-Oct-12 07:02N 37°56' E 023°37'0 0.0
2017-Oct-12 06:59N 37°56' E 023°37'0 0.0
2017-Oct-12 06:29N 37°56' E 023°37'0 0.0
2017-Oct-12 05:59N 37°56' E 023°37'0 0.0
2017-Oct-12 05:29N 37°56' E 023°37'0 0.0
2017-Oct-12 04:59N 37°56' E 023°37'0 0.0
2017-Oct-12 04:29N 37°56' E 023°37'0 0.6
2017-Oct-12 04:00N 37°56' E 023°37'2 3.5
2017-Oct-12 03:30N 37°54' E 023°37'3 6.2
2017-Oct-12 03:00N 37°52' E 023°39'611.5
2017-Oct-12 02:30N 37°47' E 023°42'  

Dump ship's entire track history